sensor_id;sensor_type;location;lat;lon;timestamp;temperature;humidity
32706;DHT22;19094;50.972;3.538;2022-11-15T03:31:19;13.90;72.40
32706;DHT22;19094;50.972;3.538;2022-11-15T03:34:08;13.90;72.50
32706;DHT22;19094;50.972;3.538;2022-11-15T03:36:35;13.90;72.50
32706;DHT22;19094;50.972;3.538;2022-11-15T03:39:05;13.90;72.20
32706;DHT22;19094;50.972;3.538;2022-11-15T03:41:39;13.90;72.20
32706;DHT22;19094;50.972;3.538;2022-11-15T03:44:18;13.90;72.30
32706;DHT22;19094;50.972;3.538;2022-11-15T03:49:28;13.80;72.30
32706;DHT22;19094;50.972;3.538;2022-11-15T03:51:57;13.80;72.30
32706;DHT22;19094;50.972;3.538;2022-11-15T03:54:24;13.80;72.40
32706;DHT22;19094;50.972;3.538;2022-11-15T03:56:49;13.80;72.50
32706;DHT22;19094;50.972;3.538;2022-11-15T03:59:15;13.80;72.10
32706;DHT22;19094;50.972;3.538;2022-11-15T04:01:40;13.80;72.10
32706;DHT22;19094;50.972;3.538;2022-11-15T04:04:06;13.80;72.20
32706;DHT22;19094;50.972;3.538;2022-11-15T04:06:32;13.80;72.20
32706;DHT22;19094;50.972;3.538;2022-11-15T04:08:57;13.80;72.30
32706;DHT22;19094;50.972;3.538;2022-11-15T04:11:23;13.80;72.40
32706;DHT22;19094;50.972;3.538;2022-11-15T04:13:49;13.80;72.20
32706;DHT22;19094;50.972;3.538;2022-11-15T04:16:14;13.80;72.20
32706;DHT22;19094;50.972;3.538;2022-11-15T04:18:40;13.80;72.10
32706;DHT22;19094;50.972;3.538;2022-11-15T04:21:06;13.80;72.00
32706;DHT22;19094;50.972;3.538;2022-11-15T04:23:51;13.80;72.10
32706;DHT22;19094;50.972;3.538;2022-11-15T04:32:23;13.80;71.80
32706;DHT22;19094;50.972;3.538;2022-11-15T04:34:49;13.80;71.90
32706;DHT22;19094;50.972;3.538;2022-11-15T04:37:14;13.80;72.00
32706;DHT22;19094;50.972;3.538;2022-11-15T04:39:42;13.80;72.10
32706;DHT22;19094;50.972;3.538;2022-11-15T04:42:08;13.80;71.80
32706;DHT22;19094;50.972;3.538;2022-11-15T04:44:34;13.80;71.80
32706;DHT22;19094;50.972;3.538;2022-11-15T04:47:01;13.80;71.70
32706;DHT22;19094;50.972;3.538;2022-11-15T04:49:27;13.70;71.70
32706;DHT22;19094;50.972;3.538;2022-11-15T04:51:53;13.80;71.70
32706;DHT22;19094;50.972;3.538;2022-11-15T04:54:18;13.70;71.70
32706;DHT22;19094;50.972;3.538;2022-11-15T04:56:44;13.70;71.70
32706;DHT22;19094;50.972;3.538;2022-11-15T04:59:10;13.80;71.60
32706;DHT22;19094;50.972;3.538;2022-11-15T05:01:35;13.80;71.60
32706;DHT22;19094;50.972;3.538;2022-11-15T05:04:01;13.80;71.60
32706;DHT22;19094;50.972;3.538;2022-11-15T05:06:46;13.70;71.70
32706;DHT22;19094;50.972;3.538;2022-11-15T05:09:12;13.70;71.80
32706;DHT22;19094;50.972;3.538;2022-11-15T05:11:39;13.70;71.80
32706;DHT22;19094;50.972;3.538;2022-11-15T05:14:05;13.70;71.80
32706;DHT22;19094;50.972;3.538;2022-11-15T05:16:30;13.70;71.90
32706;DHT22;19094;50.972;3.538;2022-11-15T05:18:56;13.70;71.80
32706;DHT22;19094;50.972;3.538;2022-11-15T05:21:22;13.70;71.70
32706;DHT22;19094;50.972;3.538;2022-11-15T05:23:47;13.70;71.70
32706;DHT22;19094;50.972;3.538;2022-11-15T05:26:15;13.70;71.70
32706;DHT22;19094;50.972;3.538;2022-11-15T05:28:41;13.70;71.70
32706;DHT22;19094;50.972;3.538;2022-11-15T05:31:13;13.70;71.60
32706;DHT22;19094;50.972;3.538;2022-11-15T05:33:39;13.70;71.80
32706;DHT22;19094;50.972;3.538;2022-11-15T05:36:29;13.60;71.80
32706;DHT22;19094;50.972;3.538;2022-11-15T05:38:56;13.70;71.80
32706;DHT22;19094;50.972;3.538;2022-11-15T05:41:27;13.60;71.80
32706;DHT22;19094;50.972;3.538;2022-11-15T05:43:54;13.60;71.80
32706;DHT22;19094;50.972;3.538;2022-11-15T05:46:20;13.60;71.70
32706;DHT22;19094;50.972;3.538;2022-11-15T05:48:48;13.60;71.70
32706;DHT22;19094;50.972;3.538;2022-11-15T05:51:15;13.60;71.60
32706;DHT22;19094;50.972;3.538;2022-11-15T05:53:42;13.60;71.70
32706;DHT22;19094;50.972;3.538;2022-11-15T05:56:09;13.60;71.90
32706;DHT22;19094;50.972;3.538;2022-11-15T05:58:36;13.60;71.80
32706;DHT22;19094;50.972;3.538;2022-11-15T06:01:02;13.60;72.50
32706;DHT22;19094;50.972;3.538;2022-11-15T06:03:28;13.60;71.80
32706;DHT22;19094;50.972;3.538;2022-11-15T06:05:54;13.60;71.70
32706;DHT22;19094;50.972;3.538;2022-11-15T06:08:19;13.60;71.70
32706;DHT22;19094;50.972;3.538;2022-11-15T06:10:45;13.60;71.70
32706;DHT22;19094;50.972;3.538;2022-11-15T06:13:11;13.60;71.70
32706;DHT22;19094;50.972;3.538;2022-11-15T06:15:36;13.60;71.70
32706;DHT22;19094;50.972;3.538;2022-11-15T06:18:02;13.60;71.80
32706;DHT22;19094;50.972;3.538;2022-11-15T06:20:29;13.60;71.70
32706;DHT22;19094;50.972;3.538;2022-11-15T06:23:03;13.60;71.60
32706;DHT22;19094;50.972;3.538;2022-11-15T06:25:39;13.60;71.70
32706;DHT22;19094;50.972;3.538;2022-11-15T06:31:27;13.60;71.60
32706;DHT22;19094;50.972;3.538;2022-11-15T06:33:52;13.60;71.70
32706;DHT22;19094;50.972;3.538;2022-11-15T06:36:18;13.60;71.50
32706;DHT22;19094;50.972;3.538;2022-11-15T06:38:44;13.60;71.60
32706;DHT22;19094;50.972;3.538;2022-11-15T06:41:11;13.60;71.40
32706;DHT22;19094;50.972;3.538;2022-11-15T06:43:38;13.60;71.30
32706;DHT22;19094;50.972;3.538;2022-11-15T06:46:05;13.70;71.20
32706;DHT22;19094;50.972;3.538;2022-11-15T06:48:32;13.60;71.30
32706;DHT22;19094;50.972;3.538;2022-11-15T06:51:00;13.60;71.30
32706;DHT22;19094;50.972;3.538;2022-11-15T06:53:26;13.60;71.50
32706;DHT22;19094;50.972;3.538;2022-11-15T06:55:52;13.60;71.30
32706;DHT22;19094;50.972;3.538;2022-11-15T06:58:18;13.60;71.30
32706;DHT22;19094;50.972;3.538;2022-11-15T07:00:44;13.60;71.50
32706;DHT22;19094;50.972;3.538;2022-11-15T07:03:09;13.60;71.50
32706;DHT22;19094;50.972;3.538;2022-11-15T07:05:35;13.60;71.50
32706;DHT22;19094;50.972;3.538;2022-11-15T07:08:02;13.60;71.50
32706;DHT22;19094;50.972;3.538;2022-11-15T07:10:28;13.60;71.40
32706;DHT22;19094;50.972;3.538;2022-11-15T07:12:55;13.60;71.30
32706;DHT22;19094;50.972;3.538;2022-11-15T07:15:23;13.50;71.50
32706;DHT22;19094;50.972;3.538;2022-11-15T07:17:50;13.60;71.60
32706;DHT22;19094;50.972;3.538;2022-11-15T07:20:16;13.60;71.50
32706;DHT22;19094;50.972;3.538;2022-11-15T07:22:42;13.50;71.50
32706;DHT22;19094;50.972;3.538;2022-11-15T07:25:08;13.60;71.40
32706;DHT22;19094;50.972;3.538;2022-11-15T07:27:34;13.60;71.30
32706;DHT22;19094;50.972;3.538;2022-11-15T07:30:01;13.60;71.30
32706;DHT22;19094;50.972;3.538;2022-11-15T07:32:26;13.60;71.30
32706;DHT22;19094;50.972;3.538;2022-11-15T07:34:52;13.60;71.40
32706;DHT22;19094;50.972;3.538;2022-11-15T07:37:18;13.60;71.40
32706;DHT22;19094;50.972;3.538;2022-11-15T07:39:44;13.60;71.40
32706;DHT22;19094;50.972;3.538;2022-11-15T07:42:10;13.50;71.40
32706;DHT22;19094;50.972;3.538;2022-11-15T07:44:54;13.60;71.30
32706;DHT22;19094;50.972;3.538;2022-11-15T07:47:20;13.60;71.30
32706;DHT22;19094;50.972;3.538;2022-11-15T07:49:46;13.60;71.40
32706;DHT22;19094;50.972;3.538;2022-11-15T07:52:12;13.50;71.50
32706;DHT22;19094;50.972;3.538;2022-11-15T07:54:38;13.60;71.30
32706;DHT22;19094;50.972;3.538;2022-11-15T07:57:04;13.60;71.30
32706;DHT22;19094;50.972;3.538;2022-11-15T07:59:31;13.60;71.30
32706;DHT22;19094;50.972;3.538;2022-11-15T08:01:57;13.60;71.10
32706;DHT22;19094;50.972;3.538;2022-11-15T08:04:22;13.60;71.10
32706;DHT22;19094;50.972;3.538;2022-11-15T08:06:48;13.60;71.10
32706;DHT22;19094;50.972;3.538;2022-11-15T08:09:15;13.60;71.10
32706;DHT22;19094;50.972;3.538;2022-11-15T08:11:40;13.60;71.10
32706;DHT22;19094;50.972;3.538;2022-11-15T08:14:06;13.70;71.00
32706;DHT22;19094;50.972;3.538;2022-11-15T08:16:32;13.70;71.00
32706;DHT22;19094;50.972;3.538;2022-11-15T08:18:58;13.70;71.00
32706;DHT22;19094;50.972;3.538;2022-11-15T08:21:23;13.70;70.80
32706;DHT22;19094;50.972;3.538;2022-11-15T08:23:49;13.70;71.00
32706;DHT22;19094;50.972;3.538;2022-11-15T08:26:15;13.60;71.00
32706;DHT22;19094;50.972;3.538;2022-11-15T08:28:41;13.70;70.90
32706;DHT22;19094;50.972;3.538;2022-11-15T08:31:17;13.70;70.90
32706;DHT22;19094;50.972;3.538;2022-11-15T08:33:44;13.60;70.80
32706;DHT22;19094;50.972;3.538;2022-11-15T08:36:15;13.70;70.90
32706;DHT22;19094;50.972;3.538;2022-11-15T08:38:42;13.70;70.70
32706;DHT22;19094;50.972;3.538;2022-11-15T08:41:12;13.70;70.90
32706;DHT22;19094;50.972;3.538;2022-11-15T08:43:39;13.70;70.80
32706;DHT22;19094;50.972;3.538;2022-11-15T08:46:04;13.70;70.70
32706;DHT22;19094;50.972;3.538;2022-11-15T08:48:30;13.70;70.70
32706;DHT22;19094;50.972;3.538;2022-11-15T08:50:56;13.70;70.70
32706;DHT22;19094;50.972;3.538;2022-11-15T08:53:22;13.80;70.60
32706;DHT22;19094;50.972;3.538;2022-11-15T08:55:48;13.80;70.60
32706;DHT22;19094;50.972;3.538;2022-11-15T08:58:14;13.80;70.50
32706;DHT22;19094;50.972;3.538;2022-11-15T09:00:39;13.80;70.40
32706;DHT22;19094;50.972;3.538;2022-11-15T09:03:06;13.80;70.30
32706;DHT22;19094;50.972;3.538;2022-11-15T09:05:32;13.80;70.10
32706;DHT22;19094;50.972;3.538;2022-11-15T09:08:00;13.80;70.00
32706;DHT22;19094;50.972;3.538;2022-11-15T09:10:26;13.90;69.70
32706;DHT22;19094;50.972;3.538;2022-11-15T09:12:52;14.00;69.70
32706;DHT22;19094;50.972;3.538;2022-11-15T09:15:17;14.00;69.60
32706;DHT22;19094;50.972;3.538;2022-11-15T09:17:45;13.90;69.70
32706;DHT22;19094;50.972;3.538;2022-11-15T09:20:10;14.00;69.60
32706;DHT22;19094;50.972;3.538;2022-11-15T09:22:36;14.00;69.60
32706;DHT22;19094;50.972;3.538;2022-11-15T09:25:04;14.00;69.40
32706;DHT22;19094;50.972;3.538;2022-11-15T09:27:30;14.00;69.40
32706;DHT22;19094;50.972;3.538;2022-11-15T09:29:56;14.10;69.40
32706;DHT22;19094;50.972;3.538;2022-11-15T09:32:22;14.10;69.30
32706;DHT22;19094;50.972;3.538;2022-11-15T09:34:49;14.20;69.30
32706;DHT22;19094;50.972;3.538;2022-11-15T09:37:15;14.20;68.80
32706;DHT22;19094;50.972;3.538;2022-11-15T09:39:41;14.20;68.90
32706;DHT22;19094;50.972;3.538;2022-11-15T09:45:32;14.20;68.90
32706;DHT22;19094;50.972;3.538;2022-11-15T09:48:13;14.20;68.80
32706;DHT22;19094;50.972;3.538;2022-11-15T09:50:50;14.20;68.80
32706;DHT22;19094;50.972;3.538;2022-11-15T09:53:43;14.30;68.60
32706;DHT22;19094;50.972;3.538;2022-11-15T09:56:23;14.40;68.40
32706;DHT22;19094;50.972;3.538;2022-11-15T09:59:19;14.50;68.00
32706;DHT22;19094;50.972;3.538;2022-11-15T10:04:34;14.50;67.70
32706;DHT22;19094;50.972;3.538;2022-11-15T10:12:19;14.60;67.50
32706;DHT22;19094;50.972;3.538;2022-11-15T10:14:46;14.60;67.40
32706;DHT22;19094;50.972;3.538;2022-11-15T10:20:32;14.70;67.10
32706;DHT22;19094;50.972;3.538;2022-11-15T10:23:04;14.70;67.10
32706;DHT22;19094;50.972;3.538;2022-11-15T10:25:33;14.80;67.10
32706;DHT22;19094;50.972;3.538;2022-11-15T10:28:22;14.70;67.40
32706;DHT22;19094;50.972;3.538;2022-11-15T10:30:52;14.80;67.50
32706;DHT22;19094;50.972;3.538;2022-11-15T10:33:24;15.00;66.10
32706;DHT22;19094;50.972;3.538;2022-11-15T10:38:51;15.00;66.80
32706;DHT22;19094;50.972;3.538;2022-11-15T10:41:38;15.10;66.20
32706;DHT22;19094;50.972;3.538;2022-11-15T10:46:43;15.30;65.40
32706;DHT22;19094;50.972;3.538;2022-11-15T10:49:29;15.50;64.80
32706;DHT22;19094;50.972;3.538;2022-11-15T10:52:16;15.50;64.20
32706;DHT22;19094;50.972;3.538;2022-11-15T10:54:50;15.50;64.60
32706;DHT22;19094;50.972;3.538;2022-11-15T10:57:23;15.80;63.30
32706;DHT22;19094;50.972;3.538;2022-11-15T11:00:03;15.80;63.10
32706;DHT22;19094;50.972;3.538;2022-11-15T11:02:37;15.80;62.70
32706;DHT22;19094;50.972;3.538;2022-11-15T11:05:06;15.60;63.90
32706;DHT22;19094;50.972;3.538;2022-11-15T11:08:03;15.50;64.20
32706;DHT22;19094;50.972;3.538;2022-11-15T11:10:30;15.40;64.70
32706;DHT22;19094;50.972;3.538;2022-11-15T11:12:55;15.40;64.90
32706;DHT22;19094;50.972;3.538;2022-11-15T11:15:24;15.40;64.90
32706;DHT22;19094;50.972;3.538;2022-11-15T11:18:07;15.40;64.40
32706;DHT22;19094;50.972;3.538;2022-11-15T11:21:18;15.40;64.40
32706;DHT22;19094;50.972;3.538;2022-11-15T11:24:04;15.40;64.90
32706;DHT22;19094;50.972;3.538;2022-11-15T11:29:22;15.40;64.70
32706;DHT22;19094;50.972;3.538;2022-11-15T11:32:13;15.40;64.50
32706;DHT22;19094;50.972;3.538;2022-11-15T11:40:43;15.40;64.80
32706;DHT22;19094;50.972;3.538;2022-11-15T11:46:16;15.10;65.60
32706;DHT22;19094;50.972;3.538;2022-11-15T11:48:49;15.00;66.30
32706;DHT22;19094;50.972;3.538;2022-11-15T11:58:54;15.30;65.00
32706;DHT22;19094;50.972;3.538;2022-11-15T12:01:35;15.20;65.30
32706;DHT22;19094;50.972;3.538;2022-11-15T12:06:54;15.20;65.60
32706;DHT22;19094;50.972;3.538;2022-11-15T12:09:30;15.30;65.10
32706;DHT22;19094;50.972;3.538;2022-11-15T12:17:13;15.30;65.10
32706;DHT22;19094;50.972;3.538;2022-11-15T12:19:40;15.30;65.20
32706;DHT22;19094;50.972;3.538;2022-11-15T12:22:18;15.30;65.40
32706;DHT22;19094;50.972;3.538;2022-11-15T12:25:14;15.20;65.30
32706;DHT22;19094;50.972;3.538;2022-11-15T12:27:50;15.30;65.40
32706;DHT22;19094;50.972;3.538;2022-11-15T12:30:20;15.10;65.90
32706;DHT22;19094;50.972;3.538;2022-11-15T12:33:00;15.20;65.90
32706;DHT22;19094;50.972;3.538;2022-11-15T12:35:37;15.20;65.60
32706;DHT22;19094;50.972;3.538;2022-11-15T12:38:03;15.30;65.50
32706;DHT22;19094;50.972;3.538;2022-11-15T12:40:32;15.30;65.40
32706;DHT22;19094;50.972;3.538;2022-11-15T12:45:44;15.10;66.00
32706;DHT22;19094;50.972;3.538;2022-11-15T12:58:57;15.20;65.60
32706;DHT22;19094;50.972;3.538;2022-11-15T13:04:28;15.10;65.90
32706;DHT22;19094;50.972;3.538;2022-11-15T13:07:04;15.20;65.70
32706;DHT22;19094;50.972;3.538;2022-11-15T13:14:53;15.10;66.50
32706;DHT22;19094;50.972;3.538;2022-11-15T13:19:46;15.20;66.10
32706;DHT22;19094;50.972;3.538;2022-11-15T13:22:12;15.20;66.00
32706;DHT22;19094;50.972;3.538;2022-11-15T13:24:56;15.20;65.80
32706;DHT22;19094;50.972;3.538;2022-11-15T13:27:22;15.10;66.80
32706;DHT22;19094;50.972;3.538;2022-11-15T13:29:48;15.10;66.30
32706;DHT22;19094;50.972;3.538;2022-11-15T13:32:15;15.10;66.10
32706;DHT22;19094;50.972;3.538;2022-11-15T13:34:46;15.10;66.50
32706;DHT22;19094;50.972;3.538;2022-11-15T13:37:28;15.20;66.40
32706;DHT22;19094;50.972;3.538;2022-11-15T13:42:40;15.10;67.00
32706;DHT22;19094;50.972;3.538;2022-11-15T13:45:13;15.20;67.00
32706;DHT22;19094;50.972;3.538;2022-11-15T13:47:40;15.20;66.80
32706;DHT22;19094;50.972;3.538;2022-11-15T13:50:10;15.10;66.80
32706;DHT22;19094;50.972;3.538;2022-11-15T13:52:37;15.20;67.20
32706;DHT22;19094;50.972;3.538;2022-11-15T13:55:08;15.10;67.40
32706;DHT22;19094;50.972;3.538;2022-11-15T13:57:43;15.10;67.60
32706;DHT22;19094;50.972;3.538;2022-11-15T14:02:48;15.10;67.80
32706;DHT22;19094;50.972;3.538;2022-11-15T14:05:19;15.00;68.00
32706;DHT22;19094;50.972;3.538;2022-11-15T14:07:59;15.00;67.60
32706;DHT22;19094;50.972;3.538;2022-11-15T14:10:34;15.20;68.00
32706;DHT22;19094;50.972;3.538;2022-11-15T14:13:03;15.20;67.60
32706;DHT22;19094;50.972;3.538;2022-11-15T14:15:34;15.10;67.50
32706;DHT22;19094;50.972;3.538;2022-11-15T14:18:00;15.20;67.80
32706;DHT22;19094;50.972;3.538;2022-11-15T14:22:58;15.10;68.40
32706;DHT22;19094;50.972;3.538;2022-11-15T14:25:29;15.10;68.60
32706;DHT22;19094;50.972;3.538;2022-11-15T14:28:15;15.10;68.40
32706;DHT22;19094;50.972;3.538;2022-11-15T14:30:43;15.10;68.60
32706;DHT22;19094;50.972;3.538;2022-11-15T14:33:25;15.10;69.40
32706;DHT22;19094;50.972;3.538;2022-11-15T14:35:54;15.10;69.20
32706;DHT22;19094;50.972;3.538;2022-11-15T14:38:21;15.10;68.60
32706;DHT22;19094;50.972;3.538;2022-11-15T14:40:48;15.00;68.80
32706;DHT22;19094;50.972;3.538;2022-11-15T14:43:14;15.00;69.10
32706;DHT22;19094;50.972;3.538;2022-11-15T14:45:40;14.90;69.20
32706;DHT22;19094;50.972;3.538;2022-11-15T14:48:06;14.90;69.40
32706;DHT22;19094;50.972;3.538;2022-11-15T14:50:33;15.00;69.50
32706;DHT22;19094;50.972;3.538;2022-11-15T14:53:00;14.90;69.70
32706;DHT22;19094;50.972;3.538;2022-11-15T14:55:28;14.90;70.00
32706;DHT22;19094;50.972;3.538;2022-11-15T14:57:57;15.00;69.90
32706;DHT22;19094;50.972;3.538;2022-11-15T15:00:23;14.90;70.00
32706;DHT22;19094;50.972;3.538;2022-11-15T15:02:51;14.90;70.10
32706;DHT22;19094;50.972;3.538;2022-11-15T15:05:20;14.90;70.30
32706;DHT22;19094;50.972;3.538;2022-11-15T15:07:47;14.90;70.40
32706;DHT22;19094;50.972;3.538;2022-11-15T15:10:14;14.90;70.70
32706;DHT22;19094;50.972;3.538;2022-11-15T15:12:40;15.00;70.10
32706;DHT22;19094;50.972;3.538;2022-11-15T15:15:15;14.90;70.50
32706;DHT22;19094;50.972;3.538;2022-11-15T15:17:41;14.90;70.20
32706;DHT22;19094;50.972;3.538;2022-11-15T15:20:08;14.90;70.60
32706;DHT22;19094;50.972;3.538;2022-11-15T15:22:34;14.90;70.70
32706;DHT22;19094;50.972;3.538;2022-11-15T15:25:01;14.90;71.20
32706;DHT22;19094;50.972;3.538;2022-11-15T15:27:29;14.90;71.00
32706;DHT22;19094;50.972;3.538;2022-11-15T15:29:55;14.90;70.90
32706;DHT22;19094;50.972;3.538;2022-11-15T15:32:20;14.90;71.40
32706;DHT22;19094;50.972;3.538;2022-11-15T15:34:46;14.90;71.80
32706;DHT22;19094;50.972;3.538;2022-11-15T15:37:25;14.90;71.40
32706;DHT22;19094;50.972;3.538;2022-11-15T15:39:53;14.90;72.00
32706;DHT22;19094;50.972;3.538;2022-11-15T15:42:21;14.90;71.30
32706;DHT22;19094;50.972;3.538;2022-11-15T15:44:47;14.90;71.90
32706;DHT22;19094;50.972;3.538;2022-11-15T15:47:19;14.90;71.10
32706;DHT22;19094;50.972;3.538;2022-11-15T15:49:47;14.90;71.90
32706;DHT22;19094;50.972;3.538;2022-11-15T15:52:14;14.90;71.90
32706;DHT22;19094;50.972;3.538;2022-11-15T15:54:40;15.00;71.30
32706;DHT22;19094;50.972;3.538;2022-11-15T15:57:07;15.10;71.50
32706;DHT22;19094;50.972;3.538;2022-11-15T15:59:33;15.10;71.80
32706;DHT22;19094;50.972;3.538;2022-11-15T16:01:59;15.10;71.80
32706;DHT22;19094;50.972;3.538;2022-11-15T16:04:25;15.10;71.30
32706;DHT22;19094;50.972;3.538;2022-11-15T16:06:52;15.20;72.20
32706;DHT22;19094;50.972;3.538;2022-11-15T16:09:20;15.20;72.00
32706;DHT22;19094;50.972;3.538;2022-11-15T16:12:06;15.10;71.70
32706;DHT22;19094;50.972;3.538;2022-11-15T16:14:32;15.10;72.20
32706;DHT22;19094;50.972;3.538;2022-11-15T16:16:57;15.10;72.10
32706;DHT22;19094;50.972;3.538;2022-11-15T16:19:26;15.10;72.30
32706;DHT22;19094;50.972;3.538;2022-11-15T16:21:51;15.10;71.90
32706;DHT22;19094;50.972;3.538;2022-11-15T16:24:18;15.10;72.40
32706;DHT22;19094;50.972;3.538;2022-11-15T16:26:44;15.10;72.20
32706;DHT22;19094;50.972;3.538;2022-11-15T16:29:10;15.10;72.20
32706;DHT22;19094;50.972;3.538;2022-11-15T16:31:36;15.10;72.40
32706;DHT22;19094;50.972;3.538;2022-11-15T16:34:02;15.10;72.00
32706;DHT22;19094;50.972;3.538;2022-11-15T16:36:31;15.10;72.50
32706;DHT22;19094;50.972;3.538;2022-11-15T16:38:58;15.10;72.70
32706;DHT22;19094;50.972;3.538;2022-11-15T16:41:24;15.20;72.20
32706;DHT22;19094;50.972;3.538;2022-11-15T16:43:50;15.10;72.30
32706;DHT22;19094;50.972;3.538;2022-11-15T16:46:21;15.20;71.90
32706;DHT22;19094;50.972;3.538;2022-11-15T16:48:48;15.20;72.20
32706;DHT22;19094;50.972;3.538;2022-11-15T16:51:14;15.10;72.20
32706;DHT22;19094;50.972;3.538;2022-11-15T16:53:40;15.10;72.70
32706;DHT22;19094;50.972;3.538;2022-11-15T16:56:25;15.10;72.20
32706;DHT22;19094;50.972;3.538;2022-11-15T16:58:55;15.10;73.20
32706;DHT22;19094;50.972;3.538;2022-11-15T17:01:34;15.10;72.70
32706;DHT22;19094;50.972;3.538;2022-11-15T17:04:00;15.20;73.30
32706;DHT22;19094;50.972;3.538;2022-11-15T17:06:39;15.20;72.60
32706;DHT22;19094;50.972;3.538;2022-11-15T17:09:13;15.20;72.90
32706;DHT22;19094;50.972;3.538;2022-11-15T17:11:40;15.30;73.40
32706;DHT22;19094;50.972;3.538;2022-11-15T17:14:06;15.20;73.10
32706;DHT22;19094;50.972;3.538;2022-11-15T17:16:32;15.10;72.80
32706;DHT22;19094;50.972;3.538;2022-11-15T17:18:59;15.20;73.10
32706;DHT22;19094;50.972;3.538;2022-11-15T17:21:26;15.30;72.50
32706;DHT22;19094;50.972;3.538;2022-11-15T17:23:53;15.20;73.00
32706;DHT22;19094;50.972;3.538;2022-11-15T17:26:18;15.10;72.90
32706;DHT22;19094;50.972;3.538;2022-11-15T17:28:44;15.10;72.90
32706;DHT22;19094;50.972;3.538;2022-11-15T17:31:12;15.00;73.10
32706;DHT22;19094;50.972;3.538;2022-11-15T17:33:39;15.00;73.00
32706;DHT22;19094;50.972;3.538;2022-11-15T17:36:07;15.10;73.30
32706;DHT22;19094;50.972;3.538;2022-11-15T17:38:33;15.20;74.00
32706;DHT22;19094;50.972;3.538;2022-11-15T17:41:04;15.20;73.40
32706;DHT22;19094;50.972;3.538;2022-11-15T17:43:32;15.20;73.20
32706;DHT22;19094;50.972;3.538;2022-11-15T17:45:58;15.10;73.20
32706;DHT22;19094;50.972;3.538;2022-11-15T17:48:24;15.10;73.70
32706;DHT22;19094;50.972;3.538;2022-11-15T17:51:05;15.10;73.10
32706;DHT22;19094;50.972;3.538;2022-11-15T17:53:33;15.20;73.80
32706;DHT22;19094;50.972;3.538;2022-11-15T17:56:20;15.20;72.90
32706;DHT22;19094;50.972;3.538;2022-11-15T17:58:51;15.20;73.10
32706;DHT22;19094;50.972;3.538;2022-11-15T18:03:42;15.00;73.20
32706;DHT22;19094;50.972;3.538;2022-11-15T18:06:10;15.00;73.60
32706;DHT22;19094;50.972;3.538;2022-11-15T18:08:37;15.00;73.20
32706;DHT22;19094;50.972;3.538;2022-11-15T18:11:09;15.00;72.90
32706;DHT22;19094;50.972;3.538;2022-11-15T18:13:36;15.00;73.10
32706;DHT22;19094;50.972;3.538;2022-11-15T18:16:04;15.00;73.20
32706;DHT22;19094;50.972;3.538;2022-11-15T18:18:31;15.00;73.30
32706;DHT22;19094;50.972;3.538;2022-11-15T18:21:05;15.00;73.40
32706;DHT22;19094;50.972;3.538;2022-11-15T18:23:32;15.10;73.60
32706;DHT22;19094;50.972;3.538;2022-11-15T18:25:59;15.10;73.30
32706;DHT22;19094;50.972;3.538;2022-11-15T18:28:32;15.00;73.10
32706;DHT22;19094;50.972;3.538;2022-11-15T18:30:59;15.10;73.70
32706;DHT22;19094;50.972;3.538;2022-11-15T18:33:32;15.10;73.40
32706;DHT22;19094;50.972;3.538;2022-11-15T18:36:00;15.10;73.40
32706;DHT22;19094;50.972;3.538;2022-11-15T18:38:26;15.10;73.80
32706;DHT22;19094;50.972;3.538;2022-11-15T18:41:17;15.10;73.20
32706;DHT22;19094;50.972;3.538;2022-11-15T18:43:43;15.10;73.30
32706;DHT22;19094;50.972;3.538;2022-11-15T18:46:13;15.20;73.60
32706;DHT22;19094;50.972;3.538;2022-11-15T18:48:41;15.10;73.80
32706;DHT22;19094;50.972;3.538;2022-11-15T18:51:10;15.10;73.20
32706;DHT22;19094;50.972;3.538;2022-11-15T18:53:37;15.10;73.70
32706;DHT22;19094;50.972;3.538;2022-11-15T18:56:06;15.10;73.70
32706;DHT22;19094;50.972;3.538;2022-11-15T18:58:34;15.20;74.10
32706;DHT22;19094;50.972;3.538;2022-11-15T19:01:21;15.20;73.60
32706;DHT22;19094;50.972;3.538;2022-11-15T19:03:49;15.30;74.00
32706;DHT22;19094;50.972;3.538;2022-11-15T19:06:19;15.20;73.20
32706;DHT22;19094;50.972;3.538;2022-11-15T19:08:46;15.20;73.50
32706;DHT22;19094;50.972;3.538;2022-11-15T19:11:17;15.20;73.30
32706;DHT22;19094;50.972;3.538;2022-11-15T19:13:43;15.30;73.40
32706;DHT22;19094;50.972;3.538;2022-11-15T19:16:12;15.20;73.10
32706;DHT22;19094;50.972;3.538;2022-11-15T19:18:38;15.20;73.40
32706;DHT22;19094;50.972;3.538;2022-11-15T19:21:05;15.20;74.00
32706;DHT22;19094;50.972;3.538;2022-11-15T19:23:39;15.20;73.40
32706;DHT22;19094;50.972;3.538;2022-11-15T19:26:09;15.20;73.30
32706;DHT22;19094;50.972;3.538;2022-11-15T19:28:35;15.20;74.00
32706;DHT22;19094;50.972;3.538;2022-11-15T19:33:33;15.20;73.90
32706;DHT22;19094;50.972;3.538;2022-11-15T19:36:04;15.40;73.90
32706;DHT22;19094;50.972;3.538;2022-11-15T19:38:31;15.30;73.40
32706;DHT22;19094;50.972;3.538;2022-11-15T19:40:58;15.30;73.60
32706;DHT22;19094;50.972;3.538;2022-11-15T19:43:25;15.30;74.00
32706;DHT22;19094;50.972;3.538;2022-11-15T19:45:55;15.20;73.90
32706;DHT22;19094;50.972;3.538;2022-11-15T19:48:21;15.20;73.80
32706;DHT22;19094;50.972;3.538;2022-11-15T19:50:48;15.20;73.20
32706;DHT22;19094;50.972;3.538;2022-11-15T19:53:14;15.20;74.10
32706;DHT22;19094;50.972;3.538;2022-11-15T19:55:40;15.20;73.90
32706;DHT22;19094;50.972;3.538;2022-11-15T19:58:05;15.20;73.50
32706;DHT22;19094;50.972;3.538;2022-11-15T20:00:31;15.20;74.10
32706;DHT22;19094;50.972;3.538;2022-11-15T20:02:57;15.20;74.20
32706;DHT22;19094;50.972;3.538;2022-11-15T20:05:22;15.20;73.40
32706;DHT22;19094;50.972;3.538;2022-11-15T20:07:48;15.20;73.70
32706;DHT22;19094;50.972;3.538;2022-11-15T20:10:15;15.20;73.80
32706;DHT22;19094;50.972;3.538;2022-11-15T20:12:41;15.20;73.90
32706;DHT22;19094;50.972;3.538;2022-11-15T20:15:07;15.20;73.80
32706;DHT22;19094;50.972;3.538;2022-11-15T20:17:32;15.20;73.80
32706;DHT22;19094;50.972;3.538;2022-11-15T20:19:58;15.20;73.80
32706;DHT22;19094;50.972;3.538;2022-11-15T20:22:25;15.30;74.10
32706;DHT22;19094;50.972;3.538;2022-11-15T20:24:51;15.30;74.00
32706;DHT22;19094;50.972;3.538;2022-11-15T20:27:17;15.30;73.80
32706;DHT22;19094;50.972;3.538;2022-11-15T20:29:43;15.20;74.10
32706;DHT22;19094;50.972;3.538;2022-11-15T20:32:10;15.30;73.60
32706;DHT22;19094;50.972;3.538;2022-11-15T20:34:36;15.30;73.70
32706;DHT22;19094;50.972;3.538;2022-11-15T20:37:02;15.30;73.70
32706;DHT22;19094;50.972;3.538;2022-11-15T20:39:27;15.30;73.90
32706;DHT22;19094;50.972;3.538;2022-11-15T20:41:53;15.40;74.10
32706;DHT22;19094;50.972;3.538;2022-11-15T20:44:19;15.30;74.00
32706;DHT22;19094;50.972;3.538;2022-11-15T20:46:44;15.30;73.80
32706;DHT22;19094;50.972;3.538;2022-11-15T20:49:10;15.30;73.90